sensor_id;sensor_type;location;lat;lon;timestamp;P1;durP1;ratioP1;P2;durP2;ratioP2
74789;SDS011;63318;52.406;13.416;2024-03-07T00:00:33;26.70;;;11.80;;
74789;SDS011;63318;52.406;13.416;2024-03-07T00:03:01;21.40;;;11.20;;
74789;SDS011;63318;52.406;13.416;2024-03-07T00:05:30;20.40;;;9.70;;
74789;SDS011;63318;52.406;13.416;2024-03-07T00:07:58;18.50;;;11.60;;
74789;SDS011;63318;52.406;13.416;2024-03-07T00:10:26;13.10;;;9.00;;
74789;SDS011;63318;52.406;13.416;2024-03-07T00:12:54;14.00;;;8.50;;
74789;SDS011;63318;52.406;13.416;2024-03-07T00:15:23;17.50;;;10.60;;
74789;SDS011;63318;52.406;13.416;2024-03-07T00:17:51;17.80;;;9.20;;
74789;SDS011;63318;52.406;13.416;2024-03-07T00:20:19;17.90;;;10.30;;
74789;SDS011;63318;52.406;13.416;2024-03-07T00:22:47;19.30;;;10.30;;
74789;SDS011;63318;52.406;13.416;2024-03-07T00:25:16;11.00;;;8.00;;
74789;SDS011;63318;52.406;13.416;2024-03-07T00:27:44;18.40;;;11.90;;
74789;SDS011;63318;52.406;13.416;2024-03-07T00:30:12;22.30;;;11.70;;
74789;SDS011;63318;52.406;13.416;2024-03-07T00:32:41;15.20;;;8.80;;
74789;SDS011;63318;52.406;13.416;2024-03-07T00:35:09;12.60;;;8.30;;
74789;SDS011;63318;52.406;13.416;2024-03-07T00:37:37;18.30;;;11.60;;
74789;SDS011;63318;52.406;13.416;2024-03-07T00:40:06;15.30;;;8.30;;
74789;SDS011;63318;52.406;13.416;2024-03-07T00:42:35;19.80;;;12.30;;
74789;SDS011;63318;52.406;13.416;2024-03-07T00:45:04;19.00;;;9.10;;
74789;SDS011;63318;52.406;13.416;2024-03-07T00:47:33;16.40;;;10.60;;
74789;SDS011;63318;52.406;13.416;2024-03-07T00:50:01;19.50;;;10.60;;
74789;SDS011;63318;52.406;13.416;2024-03-07T00:52:29;27.50;;;14.90;;
74789;SDS011;63318;52.406;13.416;2024-03-07T00:54:58;19.80;;;11.00;;
74789;SDS011;63318;52.406;13.416;2024-03-07T00:57:26;13.60;;;9.70;;
74789;SDS011;63318;52.406;13.416;2024-03-07T00:59:54;26.70;;;12.90;;
74789;SDS011;63318;52.406;13.416;2024-03-07T01:02:22;28.10;;;10.30;;
74789;SDS011;63318;52.406;13.416;2024-03-07T01:04:51;28.10;;;10.90;;
74789;SDS011;63318;52.406;13.416;2024-03-07T01:07:19;24.10;;;11.70;;
74789;SDS011;63318;52.406;13.416;2024-03-07T01:09:47;20.10;;;10.00;;
74789;SDS011;63318;52.406;13.416;2024-03-07T01:12:15;16.80;;;9.90;;
74789;SDS011;63318;52.406;13.416;2024-03-07T01:14:44;21.10;;;12.10;;
74789;SDS011;63318;52.406;13.416;2024-03-07T01:17:12;19.40;;;10.40;;
74789;SDS011;63318;52.406;13.416;2024-03-07T01:19:40;19.80;;;11.60;;
74789;SDS011;63318;52.406;13.416;2024-03-07T01:22:08;22.90;;;10.60;;
74789;SDS011;63318;52.406;13.416;2024-03-07T01:24:36;27.50;;;12.90;;
74789;SDS011;63318;52.406;13.416;2024-03-07T01:27:04;18.10;;;9.30;;
74789;SDS011;63318;52.406;13.416;2024-03-07T01:29:33;17.90;;;9.00;;
74789;SDS011;63318;52.406;13.416;2024-03-07T01:32:01;19.10;;;9.90;;
74789;SDS011;63318;52.406;13.416;2024-03-07T01:34:29;23.80;;;9.00;;
74789;SDS011;63318;52.406;13.416;2024-03-07T01:36:58;22.20;;;12.30;;
74789;SDS011;63318;52.406;13.416;2024-03-07T01:39:26;20.30;;;10.70;;
74789;SDS011;63318;52.406;13.416;2024-03-07T01:41:54;23.10;;;13.10;;
74789;SDS011;63318;52.406;13.416;2024-03-07T01:44:22;28.90;;;12.70;;
74789;SDS011;63318;52.406;13.416;2024-03-07T01:46:50;12.60;;;8.20;;
74789;SDS011;63318;52.406;13.416;2024-03-07T01:49:19;17.70;;;8.90;;
74789;SDS011;63318;52.406;13.416;2024-03-07T01:51:47;29.00;;;9.90;;
74789;SDS011;63318;52.406;13.416;2024-03-07T01:54:15;16.90;;;12.20;;
74789;SDS011;63318;52.406;13.416;2024-03-07T01:56:44;21.00;;;8.70;;
74789;SDS011;63318;52.406;13.416;2024-03-07T01:59:12;25.10;;;11.30;;
74789;SDS011;63318;52.406;13.416;2024-03-07T02:01:41;14.60;;;9.10;;
74789;SDS011;63318;52.406;13.416;2024-03-07T02:04:10;11.20;;;7.60;;
74789;SDS011;63318;52.406;13.416;2024-03-07T02:06:39;11.20;;;8.20;;
74789;SDS011;63318;52.406;13.416;2024-03-07T02:09:07;24.70;;;9.60;;
74789;SDS011;63318;52.406;13.416;2024-03-07T02:11:35;14.70;;;8.20;;
74789;SDS011;63318;52.406;13.416;2024-03-07T02:14:03;23.80;;;10.30;;
74789;SDS011;63318;52.406;13.416;2024-03-07T02:16:31;16.50;;;11.40;;
74789;SDS011;63318;52.406;13.416;2024-03-07T02:19:00;11.90;;;7.70;;
74789;SDS011;63318;52.406;13.416;2024-03-07T02:21:28;14.80;;;9.40;;
74789;SDS011;63318;52.406;13.416;2024-03-07T02:23:56;15.20;;;10.60;;
74789;SDS011;63318;52.406;13.416;2024-03-07T02:26:24;17.60;;;9.10;;
74789;SDS011;63318;52.406;13.416;2024-03-07T02:28:52;24.10;;;10.60;;
74789;SDS011;63318;52.406;13.416;2024-03-07T02:31:20;13.40;;;7.50;;
74789;SDS011;63318;52.406;13.416;2024-03-07T02:33:49;23.70;;;8.10;;
74789;SDS011;63318;52.406;13.416;2024-03-07T02:36:17;14.80;;;9.00;;
74789;SDS011;63318;52.406;13.416;2024-03-07T02:38:45;19.70;;;8.60;;
74789;SDS011;63318;52.406;13.416;2024-03-07T02:41:13;12.10;;;9.30;;
74789;SDS011;63318;52.406;13.416;2024-03-07T02:43:41;22.20;;;11.80;;
74789;SDS011;63318;52.406;13.416;2024-03-07T02:46:10;15.10;;;9.40;;
74789;SDS011;63318;52.406;13.416;2024-03-07T02:48:38;14.60;;;9.40;;
74789;SDS011;63318;52.406;13.416;2024-03-07T02:51:06;17.80;;;9.60;;
74789;SDS011;63318;52.406;13.416;2024-03-07T02:53:34;14.30;;;7.80;;
74789;SDS011;63318;52.406;13.416;2024-03-07T02:56:03;10.20;;;7.40;;
74789;SDS011;63318;52.406;13.416;2024-03-07T02:58:31;18.10;;;9.80;;
74789;SDS011;63318;52.406;13.416;2024-03-07T03:01:00;11.10;;;8.60;;
74789;SDS011;63318;52.406;13.416;2024-03-07T03:03:28;11.70;;;7.30;;
74789;SDS011;63318;52.406;13.416;2024-03-07T03:05:57;17.70;;;10.50;;
74789;SDS011;63318;52.406;13.416;2024-03-07T03:08:25;12.20;;;6.90;;
74789;SDS011;63318;52.406;13.416;2024-03-07T03:10:53;17.40;;;10.60;;
74789;SDS011;63318;52.406;13.416;2024-03-07T03:13:22;15.70;;;7.20;;
74789;SDS011;63318;52.406;13.416;2024-03-07T03:15:51;21.80;;;9.60;;
74789;SDS011;63318;52.406;13.416;2024-03-07T03:18:19;14.70;;;8.40;;
74789;SDS011;63318;52.406;13.416;2024-03-07T03:20:47;21.90;;;11.40;;
74789;SDS011;63318;52.406;13.416;2024-03-07T03:23:15;16.40;;;9.70;;
74789;SDS011;63318;52.406;13.416;2024-03-07T03:25:44;17.20;;;8.30;;
74789;SDS011;63318;52.406;13.416;2024-03-07T03:28:12;16.00;;;8.50;;
74789;SDS011;63318;52.406;13.416;2024-03-07T03:30:40;11.90;;;7.60;;
74789;SDS011;63318;52.406;13.416;2024-03-07T03:33:09;19.50;;;9.70;;
74789;SDS011;63318;52.406;13.416;2024-03-07T03:35:37;13.20;;;7.90;;
74789;SDS011;63318;52.406;13.416;2024-03-07T03:38:06;14.30;;;9.00;;
74789;SDS011;63318;52.406;13.416;2024-03-07T03:40:34;16.70;;;9.10;;
74789;SDS011;63318;52.406;13.416;2024-03-07T03:43:02;35.80;;;11.30;;
74789;SDS011;63318;52.406;13.416;2024-03-07T03:45:31;22.50;;;9.60;;
74789;SDS011;63318;52.406;13.416;2024-03-07T03:47:59;12.10;;;6.50;;
74789;SDS011;63318;52.406;13.416;2024-03-07T03:50:28;16.50;;;8.30;;
74789;SDS011;63318;52.406;13.416;2024-03-07T03:52:56;14.10;;;11.00;;
74789;SDS011;63318;52.406;13.416;2024-03-07T03:55:24;20.10;;;10.70;;
74789;SDS011;63318;52.406;13.416;2024-03-07T03:57:52;16.20;;;10.30;;
74789;SDS011;63318;52.406;13.416;2024-03-07T04:00:20;16.80;;;7.60;;
74789;SDS011;63318;52.406;13.416;2024-03-07T04:02:49;21.90;;;10.00;;
74789;SDS011;63318;52.406;13.416;2024-03-07T04:05:18;17.60;;;9.80;;
74789;SDS011;63318;52.406;13.416;2024-03-07T04:07:46;16.40;;;9.40;;
74789;SDS011;63318;52.406;13.416;2024-03-07T04:10:15;17.00;;;10.60;;
74789;SDS011;63318;52.406;13.416;2024-03-07T04:12:43;18.40;;;8.10;;
74789;SDS011;63318;52.406;13.416;2024-03-07T04:15:13;18.60;;;10.50;;
74789;SDS011;63318;52.406;13.416;2024-03-07T04:17:42;10.50;;;8.20;;
74789;SDS011;63318;52.406;13.416;2024-03-07T04:20:10;12.70;;;7.90;;
74789;SDS011;63318;52.406;13.416;2024-03-07T04:22:39;15.00;;;8.20;;
74789;SDS011;63318;52.406;13.416;2024-03-07T04:25:07;16.90;;;7.80;;
74789;SDS011;63318;52.406;13.416;2024-03-07T04:27:36;12.10;;;8.20;;
74789;SDS011;63318;52.406;13.416;2024-03-07T04:30:05;18.10;;;8.90;;
74789;SDS011;63318;52.406;13.416;2024-03-07T04:32:35;19.90;;;9.60;;
74789;SDS011;63318;52.406;13.416;2024-03-07T04:35:05;13.40;;;7.00;;
74789;SDS011;63318;52.406;13.416;2024-03-07T04:37:34;13.70;;;8.90;;
74789;SDS011;63318;52.406;13.416;2024-03-07T04:40:03;14.30;;;9.40;;
74789;SDS011;63318;52.406;13.416;2024-03-07T04:42:32;14.80;;;9.30;;
74789;SDS011;63318;52.406;13.416;2024-03-07T04:45:01;13.10;;;5.00;;
74789;SDS011;63318;52.406;13.416;2024-03-07T04:47:29;13.50;;;7.30;;
74789;SDS011;63318;52.406;13.416;2024-03-07T04:49:57;12.50;;;7.00;;
74789;SDS011;63318;52.406;13.416;2024-03-07T04:52:25;12.30;;;7.80;;
74789;SDS011;63318;52.406;13.416;2024-03-07T04:54:53;11.20;;;6.80;;
74789;SDS011;63318;52.406;13.416;2024-03-07T04:57:22;12.50;;;8.90;;
74789;SDS011;63318;52.406;13.416;2024-03-07T04:59:50;14.00;;;6.50;;
74789;SDS011;63318;52.406;13.416;2024-03-07T05:02:18;15.50;;;9.40;;
74789;SDS011;63318;52.406;13.416;2024-03-07T05:04:46;11.50;;;7.60;;
74789;SDS011;63318;52.406;13.416;2024-03-07T05:07:14;13.70;;;6.50;;
74789;SDS011;63318;52.406;13.416;2024-03-07T05:09:43;11.20;;;7.20;;
74789;SDS011;63318;52.406;13.416;2024-03-07T05:12:11;13.80;;;8.50;;
74789;SDS011;63318;52.406;13.416;2024-03-07T05:14:39;9.20;;;6.20;;
74789;SDS011;63318;52.406;13.416;2024-03-07T05:17:07;15.30;;;7.60;;
74789;SDS011;63318;52.406;13.416;2024-03-07T05:19:35;11.90;;;6.10;;
74789;SDS011;63318;52.406;13.416;2024-03-07T05:22:04;11.50;;;5.60;;
74789;SDS011;63318;52.406;13.416;2024-03-07T05:24:32;11.30;;;5.50;;
74789;SDS011;63318;52.406;13.416;2024-03-07T05:27:00;10.70;;;5.30;;
74789;SDS011;63318;52.406;13.416;2024-03-07T05:29:29;18.10;;;6.40;;
74789;SDS011;63318;52.406;13.416;2024-03-07T05:32:17;7.50;;;5.40;;
74789;SDS011;63318;52.406;13.416;2024-03-07T05:34:49;8.20;;;5.10;;
74789;SDS011;63318;52.406;13.416;2024-03-07T05:37:17;10.10;;;6.10;;
74789;SDS011;63318;52.406;13.416;2024-03-07T05:39:45;6.00;;;5.20;;
74789;SDS011;63318;52.406;13.416;2024-03-07T05:42:14;9.10;;;5.70;;
74789;SDS011;63318;52.406;13.416;2024-03-07T05:44:43;11.50;;;5.40;;
74789;SDS011;63318;52.406;13.416;2024-03-07T05:47:11;12.20;;;5.90;;
74789;SDS011;63318;52.406;13.416;2024-03-07T05:49:40;9.00;;;6.90;;
74789;SDS011;63318;52.406;13.416;2024-03-07T05:52:08;14.10;;;6.70;;
74789;SDS011;63318;52.406;13.416;2024-03-07T05:54:36;9.50;;;6.10;;
74789;SDS011;63318;52.406;13.416;2024-03-07T05:57:05;14.00;;;7.40;;
74789;SDS011;63318;52.406;13.416;2024-03-07T05:59:33;10.50;;;5.80;;
74789;SDS011;63318;52.406;13.416;2024-03-07T06:02:01;11.20;;;6.00;;
74789;SDS011;63318;52.406;13.416;2024-03-07T06:04:29;9.20;;;6.80;;
74789;SDS011;63318;52.406;13.416;2024-03-07T06:06:57;8.20;;;5.00;;
74789;SDS011;63318;52.406;13.416;2024-03-07T06:09:26;8.80;;;6.20;;
74789;SDS011;63318;52.406;13.416;2024-03-07T06:11:54;20.60;;;8.20;;
74789;SDS011;63318;52.406;13.416;2024-03-07T06:14:22;9.80;;;5.30;;
74789;SDS011;63318;52.406;13.416;2024-03-07T06:16:51;7.20;;;5.30;;
74789;SDS011;63318;52.406;13.416;2024-03-07T06:19:19;10.40;;;6.80;;
74789;SDS011;63318;52.406;13.416;2024-03-07T06:21:47;12.30;;;5.60;;
74789;SDS011;63318;52.406;13.416;2024-03-07T06:24:15;8.10;;;6.80;;
74789;SDS011;63318;52.406;13.416;2024-03-07T06:26:44;12.80;;;6.90;;
74789;SDS011;63318;52.406;13.416;2024-03-07T06:29:12;9.10;;;4.70;;
74789;SDS011;63318;52.406;13.416;2024-03-07T06:31:41;10.80;;;5.00;;
74789;SDS011;63318;52.406;13.416;2024-03-07T06:34:10;10.70;;;4.50;;
74789;SDS011;63318;52.406;13.416;2024-03-07T06:36:38;7.30;;;3.40;;
74789;SDS011;63318;52.406;13.416;2024-03-07T06:39:07;9.10;;;5.00;;
74789;SDS011;63318;52.406;13.416;2024-03-07T06:41:35;9.80;;;3.70;;
74789;SDS011;63318;52.406;13.416;2024-03-07T06:44:04;9.60;;;5.60;;
74789;SDS011;63318;52.406;13.416;2024-03-07T06:46:32;10.20;;;5.20;;
74789;SDS011;63318;52.406;13.416;2024-03-07T06:49:01;7.30;;;4.50;;
74789;SDS011;63318;52.406;13.416;2024-03-07T06:51:29;10.30;;;5.30;;
74789;SDS011;63318;52.406;13.416;2024-03-07T06:53:57;8.90;;;5.10;;
74789;SDS011;63318;52.406;13.416;2024-03-07T06:56:25;8.40;;;6.00;;
74789;SDS011;63318;52.406;13.416;2024-03-07T06:58:54;7.70;;;4.10;;
74789;SDS011;63318;52.406;13.416;2024-03-07T07:01:22;7.70;;;4.90;;
74789;SDS011;63318;52.406;13.416;2024-03-07T07:03:50;7.90;;;3.30;;
74789;SDS011;63318;52.406;13.416;2024-03-07T07:06:18;7.90;;;4.80;;
74789;SDS011;63318;52.406;13.416;2024-03-07T07:08:47;9.90;;;5.90;;
74789;SDS011;63318;52.406;13.416;2024-03-07T07:11:15;7.20;;;4.30;;
74789;SDS011;63318;52.406;13.416;2024-03-07T07:13:43;17.10;;;6.10;;
74789;SDS011;63318;52.406;13.416;2024-03-07T07:16:11;9.60;;;4.40;;
74789;SDS011;63318;52.406;13.416;2024-03-07T07:18:39;7.60;;;4.00;;
74789;SDS011;63318;52.406;13.416;2024-03-07T07:21:08;8.40;;;4.70;;
74789;SDS011;63318;52.406;13.416;2024-03-07T07:23:36;11.30;;;5.90;;
74789;SDS011;63318;52.406;13.416;2024-03-07T07:26:04;6.40;;;4.30;;
74789;SDS011;63318;52.406;13.416;2024-03-07T07:28:32;10.00;;;4.70;;
74789;SDS011;63318;52.406;13.416;2024-03-07T07:31:01;4.30;;;3.40;;
74789;SDS011;63318;52.406;13.416;2024-03-07T07:33:29;9.80;;;4.70;;
74789;SDS011;63318;52.406;13.416;2024-03-07T07:35:58;8.90;;;4.20;;
74789;SDS011;63318;52.406;13.416;2024-03-07T07:38:26;6.00;;;3.60;;
74789;SDS011;63318;52.406;13.416;2024-03-07T07:40:54;7.70;;;3.80;;
74789;SDS011;63318;52.406;13.416;2024-03-07T07:43:22;9.20;;;5.60;;
74789;SDS011;63318;52.406;13.416;2024-03-07T07:45:51;8.70;;;4.90;;
74789;SDS011;63318;52.406;13.416;2024-03-07T07:48:19;7.80;;;3.80;;
74789;SDS011;63318;52.406;13.416;2024-03-07T07:50:48;5.40;;;4.30;;
74789;SDS011;63318;52.406;13.416;2024-03-07T07:53:16;8.00;;;3.70;;
74789;SDS011;63318;52.406;13.416;2024-03-07T07:55:45;13.80;;;4.80;;
74789;SDS011;63318;52.406;13.416;2024-03-07T07:58:13;6.60;;;4.20;;
74789;SDS011;63318;52.406;13.416;2024-03-07T08:00:42;8.30;;;4.60;;
74789;SDS011;63318;52.406;13.416;2024-03-07T08:03:10;17.00;;;8.30;;
74789;SDS011;63318;52.406;13.416;2024-03-07T08:05:39;9.90;;;4.70;;
74789;SDS011;63318;52.406;13.416;2024-03-07T08:08:07;5.00;;;3.30;;
74789;SDS011;63318;52.406;13.416;2024-03-07T08:10:36;7.60;;;4.00;;
74789;SDS011;63318;52.406;13.416;2024-03-07T08:13:05;7.10;;;4.30;;
74789;SDS011;63318;52.406;13.416;2024-03-07T08:15:33;11.60;;;4.80;;
74789;SDS011;63318;52.406;13.416;2024-03-07T08:18:02;5.10;;;3.10;;
74789;SDS011;63318;52.406;13.416;2024-03-07T08:20:31;13.00;;;3.50;;
74789;SDS011;63318;52.406;13.416;2024-03-07T08:23:00;9.90;;;4.00;;
74789;SDS011;63318;52.406;13.416;2024-03-07T08:25:29;8.40;;;3.90;;
74789;SDS011;63318;52.406;13.416;2024-03-07T08:27:57;7.60;;;4.30;;
74789;SDS011;63318;52.406;13.416;2024-03-07T08:30:26;10.50;;;4.90;;
74789;SDS011;63318;52.406;13.416;2024-03-07T08:32:55;6.50;;;3.70;;
74789;SDS011;63318;52.406;13.416;2024-03-07T08:35:23;7.10;;;3.50;;
74789;SDS011;63318;52.406;13.416;2024-03-07T08:37:53;4.50;;;3.20;;
74789;SDS011;63318;52.406;13.416;2024-03-07T08:40:27;5.50;;;3.40;;
74789;SDS011;63318;52.406;13.416;2024-03-07T08:42:59;10.50;;;4.90;;
74789;SDS011;63318;52.406;13.416;2024-03-07T08:45:28;8.40;;;4.50;;
74789;SDS011;63318;52.406;13.416;2024-03-07T08:47:57;15.00;;;5.10;;
74789;SDS011;63318;52.406;13.416;2024-03-07T08:50:25;10.30;;;6.00;;
74789;SDS011;63318;52.406;13.416;2024-03-07T08:52:54;9.20;;;5.10;;
74789;SDS011;63318;52.406;13.416;2024-03-07T08:55:23;10.00;;;5.90;;
74789;SDS011;63318;52.406;13.416;2024-03-07T08:57:52;7.30;;;3.90;;
74789;SDS011;63318;52.406;13.416;2024-03-07T09:00:21;7.30;;;5.50;;
74789;SDS011;63318;52.406;13.416;2024-03-07T09:02:49;4.60;;;2.40;;
74789;SDS011;63318;52.406;13.416;2024-03-07T09:05:19;9.30;;;6.00;;
74789;SDS011;63318;52.406;13.416;2024-03-07T09:07:48;5.80;;;4.00;;
74789;SDS011;63318;52.406;13.416;2024-03-07T09:10:17;6.00;;;3.40;;
74789;SDS011;63318;52.406;13.416;2024-03-07T09:12:46;16.70;;;5.80;;
74789;SDS011;63318;52.406;13.416;2024-03-07T09:15:17;6.50;;;4.00;;
74789;SDS011;63318;52.406;13.416;2024-03-07T09:17:45;5.90;;;3.50;;
74789;SDS011;63318;52.406;13.416;2024-03-07T09:20:13;9.70;;;3.00;;
74789;SDS011;63318;52.406;13.416;2024-03-07T09:25:10;5.40;;;3.10;;
74789;SDS011;63318;52.406;13.416;2024-03-07T09:27:39;8.10;;;4.10;;
74789;SDS011;63318;52.406;13.416;2024-03-07T09:30:08;5.40;;;3.80;;
74789;SDS011;63318;52.406;13.416;2024-03-07T09:32:36;3.90;;;2.60;;
74789;SDS011;63318;52.406;13.416;2024-03-07T09:35:06;5.80;;;3.50;;
74789;SDS011;63318;52.406;13.416;2024-03-07T09:37:36;5.70;;;2.70;;
74789;SDS011;63318;52.406;13.416;2024-03-07T09:40:06;8.10;;;3.10;;
74789;SDS011;63318;52.406;13.416;2024-03-07T09:42:38;3.80;;;2.70;;
74789;SDS011;63318;52.406;13.416;2024-03-07T09:45:11;5.10;;;3.30;;
74789;SDS011;63318;52.406;13.416;2024-03-07T09:47:44;3.40;;;2.30;;
74789;SDS011;63318;52.406;13.416;2024-03-07T09:50:13;5.30;;;2.70;;
74789;SDS011;63318;52.406;13.416;2024-03-07T09:52:43;3.00;;;1.50;;
74789;SDS011;63318;52.406;13.416;2024-03-07T09:55:12;2.60;;;1.60;;
74789;SDS011;63318;52.406;13.416;2024-03-07T09:57:41;3.70;;;1.90;;
74789;SDS011;63318;52.406;13.416;2024-03-07T10:00:13;4.40;;;2.20;;
74789;SDS011;63318;52.406;13.416;2024-03-07T10:02:45;3.60;;;1.70;;
74789;SDS011;63318;52.406;13.416;2024-03-07T10:05:14;5.20;;;2.70;;
74789;SDS011;63318;52.406;13.416;2024-03-07T10:07:43;5.20;;;2.40;;
74789;SDS011;63318;52.406;13.416;2024-03-07T10:10:12;6.20;;;3.50;;
74789;SDS011;63318;52.406;13.416;2024-03-07T10:12:40;6.10;;;1.60;;
74789;SDS011;63318;52.406;13.416;2024-03-07T10:15:10;4.10;;;3.00;;
74789;SDS011;63318;52.406;13.416;2024-03-07T10:17:39;4.60;;;2.60;;
74789;SDS011;63318;52.406;13.416;2024-03-07T10:20:08;3.80;;;2.30;;
74789;SDS011;63318;52.406;13.416;2024-03-07T10:22:38;3.10;;;1.90;;
74789;SDS011;63318;52.406;13.416;2024-03-07T10:25:07;4.80;;;2.10;;
74789;SDS011;63318;52.406;13.416;2024-03-07T10:27:37;2.40;;;1.40;;
74789;SDS011;63318;52.406;13.416;2024-03-07T10:30:06;3.40;;;2.00;;
74789;SDS011;63318;52.406;13.416;2024-03-07T10:32:36;4.10;;;2.20;;
74789;SDS011;63318;52.406;13.416;2024-03-07T10:35:06;5.20;;;2.50;;
74789;SDS011;63318;52.406;13.416;2024-03-07T10:37:35;7.00;;;2.30;;
74789;SDS011;63318;52.406;13.416;2024-03-07T10:40:05;6.90;;;2.20;;
74789;SDS011;63318;52.406;13.416;2024-03-07T10:42:34;3.80;;;1.50;;
74789;SDS011;63318;52.406;13.416;2024-03-07T10:45:03;3.90;;;2.40;;
74789;SDS011;63318;52.406;13.416;2024-03-07T10:47:32;3.50;;;2.40;;
74789;SDS011;63318;52.406;13.416;2024-03-07T10:50:07;3.80;;;2.60;;
74789;SDS011;63318;52.406;13.416;2024-03-07T10:52:48;3.60;;;2.80;;
74789;SDS011;63318;52.406;13.416;2024-03-07T10:55:23;1.90;;;1.10;;
74789;SDS011;63318;52.406;13.416;2024-03-07T10:57:58;3.90;;;2.00;;
74789;SDS011;63318;52.406;13.416;2024-03-07T11:00:31;2.50;;;1.60;;
74789;SDS011;63318;52.406;13.416;2024-03-07T11:03:01;5.90;;;3.50;;
74789;SDS011;63318;52.406;13.416;2024-03-07T11:05:30;5.20;;;1.50;;
74789;SDS011;63318;52.406;13.416;2024-03-07T11:08:00;4.70;;;2.60;;
74789;SDS011;63318;52.406;13.416;2024-03-07T11:10:29;4.20;;;2.70;;
74789;SDS011;63318;52.406;13.416;2024-03-07T11:12:59;4.30;;;2.00;;
74789;SDS011;63318;52.406;13.416;2024-03-07T11:15:28;3.30;;;1.70;;
74789;SDS011;63318;52.406;13.416;2024-03-07T11:17:59;2.90;;;1.60;;
74789;SDS011;63318;52.406;13.416;2024-03-07T11:20:34;8.20;;;3.20;;
74789;SDS011;63318;52.406;13.416;2024-03-07T11:25:54;3.80;;;2.20;;
74789;SDS011;63318;52.406;13.416;2024-03-07T11:28:30;2.50;;;1.80;;
74789;SDS011;63318;52.406;13.416;2024-03-07T11:31:08;2.40;;;1.50;;
74789;SDS011;63318;52.406;13.416;2024-03-07T11:33:39;2.60;;;1.30;;
74789;SDS011;63318;52.406;13.416;2024-03-07T11:36:08;3.60;;;2.30;;
74789;SDS011;63318;52.406;13.416;2024-03-07T11:38:37;2.70;;;2.00;;
74789;SDS011;63318;52.406;13.416;2024-03-07T11:41:10;2.70;;;2.00;;
74789;SDS011;63318;52.406;13.416;2024-03-07T11:43:38;3.60;;;1.70;;
74789;SDS011;63318;52.406;13.416;2024-03-07T11:46:07;4.70;;;2.40;;
74789;SDS011;63318;52.406;13.416;2024-03-07T11:48:38;4.20;;;2.00;;
74789;SDS011;63318;52.406;13.416;2024-03-07T11:51:07;5.40;;;2.20;;
74789;SDS011;63318;52.406;13.416;2024-03-07T11:53:40;3.60;;;1.80;;
74789;SDS011;63318;52.406;13.416;2024-03-07T11:56:08;4.00;;;2.30;;
74789;SDS011;63318;52.406;13.416;2024-03-07T11:58:38;3.90;;;2.40;;
74789;SDS011;63318;52.406;13.416;2024-03-07T12:01:07;5.40;;;2.10;;
74789;SDS011;63318;52.406;13.416;2024-03-07T12:03:36;3.60;;;2.70;;
74789;SDS011;63318;52.406;13.416;2024-03-07T12:06:05;4.70;;;2.20;;
74789;SDS011;63318;52.406;13.416;2024-03-07T12:08:34;3.20;;;1.60;;
74789;SDS011;63318;52.406;13.416;2024-03-07T12:11:02;4.70;;;2.30;;
74789;SDS011;63318;52.406;13.416;2024-03-07T12:13:31;4.50;;;2.60;;
74789;SDS011;63318;52.406;13.416;2024-03-07T12:15:59;4.20;;;2.60;;
74789;SDS011;63318;52.406;13.416;2024-03-07T12:18:27;3.90;;;1.50;;
74789;SDS011;63318;52.406;13.416;2024-03-07T12:20:56;3.70;;;1.60;;
74789;SDS011;63318;52.406;13.416;2024-03-07T12:23:24;7.40;;;2.80;;
74789;SDS011;63318;52.406;13.416;2024-03-07T12:26:00;4.30;;;2.90;;
74789;SDS011;63318;52.406;13.416;2024-03-07T12:28:28;5.10;;;1.80;;
74789;SDS011;63318;52.406;13.416;2024-03-07T12:30:57;3.80;;;2.10;;
74789;SDS011;63318;52.406;13.416;2024-03-07T12:33:26;4.30;;;1.80;;
74789;SDS011;63318;52.406;13.416;2024-03-07T12:35:55;4.50;;;2.30;;
74789;SDS011;63318;52.406;13.416;2024-03-07T12:38:23;3.10;;;1.90;;
74789;SDS011;63318;52.406;13.416;2024-03-07T12:41:03;4.30;;;1.50;;
74789;SDS011;63318;52.406;13.416;2024-03-07T12:43:34;3.40;;;2.50;;
74789;SDS011;63318;52.406;13.416;2024-03-07T12:46:04;2.30;;;1.30;;
74789;SDS011;63318;52.406;13.416;2024-03-07T12:48:33;6.80;;;2.60;;
74789;SDS011;63318;52.406;13.416;2024-03-07T12:51:02;5.30;;;2.80;;
74789;SDS011;63318;52.406;13.416;2024-03-07T12:53:30;3.90;;;2.90;;
74789;SDS011;63318;52.406;13.416;2024-03-07T12:55:58;8.00;;;3.40;;
74789;SDS011;63318;52.406;13.416;2024-03-07T12:58:27;3.20;;;1.50;;
74789;SDS011;63318;52.406;13.416;2024-03-07T13:00:55;3.30;;;2.10;;
74789;SDS011;63318;52.406;13.416;2024-03-07T13:03:23;3.90;;;2.20;;
74789;SDS011;63318;52.406;13.416;2024-03-07T13:05:56;3.60;;;2.40;;
74789;SDS011;63318;52.406;13.416;2024-03-07T13:08:24;5.00;;;2.00;;
74789;SDS011;63318;52.406;13.416;2024-03-07T13:10:52;3.40;;;2.20;;
74789;SDS011;63318;52.406;13.416;2024-03-07T13:13:20;2.90;;;1.70;;
74789;SDS011;63318;52.406;13.416;2024-03-07T13:15:48;3.40;;;2.20;;
74789;SDS011;63318;52.406;13.416;2024-03-07T13:18:16;3.10;;;1.80;;
74789;SDS011;63318;52.406;13.416;2024-03-07T13:20:45;2.70;;;1.50;;
74789;SDS011;63318;52.406;13.416;2024-03-07T13:23:13;3.30;;;1.70;;
74789;SDS011;63318;52.406;13.416;2024-03-07T13:25:41;3.30;;;2.30;;
74789;SDS011;63318;52.406;13.416;2024-03-07T13:28:10;4.20;;;2.80;;
74789;SDS011;63318;52.406;13.416;2024-03-07T13:30:41;3.30;;;2.30;;
74789;SDS011;63318;52.406;13.416;2024-03-07T13:33:11;2.30;;;1.20;;
74789;SDS011;63318;52.406;13.416;2024-03-07T13:35:39;4.50;;;2.80;;
74789;SDS011;63318;52.406;13.416;2024-03-07T13:38:07;5.40;;;2.30;;
74789;SDS011;63318;52.406;13.416;2024-03-07T13:40:36;7.50;;;3.30;;
74789;SDS011;63318;52.406;13.416;2024-03-07T13:43:06;3.90;;;1.60;;
74789;SDS011;63318;52.406;13.416;2024-03-07T13:45:35;5.10;;;3.10;;
74789;SDS011;63318;52.406;13.416;2024-03-07T13:48:04;6.30;;;2.90;;
74789;SDS011;63318;52.406;13.416;2024-03-07T13:50:34;3.10;;;2.10;;
74789;SDS011;63318;52.406;13.416;2024-03-07T13:53:03;3.10;;;2.10;;
74789;SDS011;63318;52.406;13.416;2024-03-07T13:55:33;2.90;;;1.60;;
74789;SDS011;63318;52.406;13.416;2024-03-07T13:58:07;2.70;;;1.70;;
74789;SDS011;63318;52.406;13.416;2024-03-07T14:03:17;3.10;;;1.80;;
74789;SDS011;63318;52.406;13.416;2024-03-07T14:06:03;3.60;;;2.20;;
74789;SDS011;63318;52.406;13.416;2024-03-07T14:18:21;2.30;;;1.20;;
74789;SDS011;63318;52.406;13.416;2024-03-07T14:27:29;2.10;;;1.30;;
74789;SDS011;63318;52.406;13.416;2024-03-07T14:32:47;2.20;;;1.20;;
74789;SDS011;63318;52.406;13.416;2024-03-07T14:35:17;4.30;;;1.80;;
74789;SDS011;63318;52.406;13.416;2024-03-07T14:37:53;4.40;;;2.10;;
74789;SDS011;63318;52.406;13.416;2024-03-07T14:40:42;3.40;;;1.70;;
74789;SDS011;63318;52.406;13.416;2024-03-07T14:43:10;3.10;;;1.30;;
74789;SDS011;63318;52.406;13.416;2024-03-07T14:45:39;4.10;;;2.20;;
74789;SDS011;63318;52.406;13.416;2024-03-07T14:48:09;3.50;;;2.40;;
74789;SDS011;63318;52.406;13.416;2024-03-07T14:50:40;4.80;;;2.70;;
74789;SDS011;63318;52.406;13.416;2024-03-07T14:53:11;3.30;;;2.20;;
74789;SDS011;63318;52.406;13.416;2024-03-07T14:55:40;3.30;;;1.50;;
74789;SDS011;63318;52.406;13.416;2024-03-07T14:58:09;3.70;;;2.20;;
74789;SDS011;63318;52.406;13.416;2024-03-07T15:00:38;2.00;;;0.90;;
74789;SDS011;63318;52.406;13.416;2024-03-07T15:03:07;3.20;;;2.20;;